CheckWX is a tool to help pilots better visualize weather data.  It is not intended as a substitute for an official pre-flight weather briefing.

04:53:48 UTC

SBTE TAF
Senador Petrônio Portela Airport
Teresina, Brazil
TAF SBTE 222200Z 2300/2312 33005KT 9999 SCT020 TX28/2300Z TN23/2308Z PROB40 2302/2304 TS BKN020 FEW030CB BECMG 2308/2311 BKN008 RMK PEI

Mar-23@
00:00 UTC

Mar-23 @ 00:00 UTC

Mar-23@
08:00 UTC

Mar-23 @ 08:00 UTC

TAF SBTE 222200Z 2300/2312 33005KT 9999 SCT020 TX28/2300Z TN23/2308Z
Wind
  • 330° at 5 KTS
Cloud Levels
  • Scattered at 2,000' AGL

Mar-23@
02:00 UTC

Mar-23 @ 02:00 UTC

Mar-23@
04:00 UTC

Mar-23 @ 04:00 UTC

PROB40 2302/2304 TS BKN020 FEW030CB

Expired

Conditions
Thunderstorm
Cloud Levels
  • Broken at 2,000' AGL
  • Few at 3,000' AGL

Mar-23@
08:00 UTC

Mar-23 @ 08:00 UTC

Mar-23@
12:00 UTC

Mar-23 @ 12:00 UTC

BECMG 2308/2311 BKN008 RMK PEI

Becoming

Becoming Conditions expected by Sat, Mar 23, 2019 @ 11:00 UTC

Wind
  • 330° at 5 KTS
Cloud Levels
  • Broken at 800' AGL